sensor_id;sensor_type;location;lat;lon;timestamp;pressure;altitude;pressure_sealevel;temperature;humidity
61628;BME280;55193;52.102;5.242;2022-09-04T00:00:54;101287.0;;;19.11;67.81
61628;BME280;55193;52.102;5.242;2022-09-04T00:02:48;101294.0;;;19.02;68.11
61628;BME280;55193;52.102;5.242;2022-09-04T00:04:37;101296.0;;;19.02;68.12
61628;BME280;55193;52.102;5.242;2022-09-04T00:08:19;101300.0;;;19.02;67.84
61628;BME280;55193;52.102;5.242;2022-09-04T00:10:07;101298.0;;;19.03;67.83
61628;BME280;55193;52.102;5.242;2022-09-04T00:11:54;101305.0;;;19.05;68.03
61628;BME280;55193;52.102;5.242;2022-09-04T00:13:40;101305.0;;;18.97;68.56
61628;BME280;55193;52.102;5.242;2022-09-04T00:15:24;101308.0;;;18.93;68.8
61628;BME280;55193;52.102;5.242;2022-09-04T00:17:06;101312.0;;;18.93;68.8
61628;BME280;55193;52.102;5.242;2022-09-04T00:20:37;101314.0;;;18.86;69.13
61628;BME280;55193;52.102;5.242;2022-09-04T00:22:26;101315.0;;;18.81;69.37
61628;BME280;55193;52.102;5.242;2022-09-04T00:24:07;101315.0;;;18.81;69.67
61628;BME280;55193;52.102;5.242;2022-09-04T00:25:52;101317.0;;;18.82;69.69
61628;BME280;55193;52.102;5.242;2022-09-04T00:27:35;101319.0;;;18.82;69.63
61628;BME280;55193;52.102;5.242;2022-09-04T00:31:11;101324.0;;;18.86;69.28
61628;BME280;55193;52.102;5.242;2022-09-04T00:33:02;101322.0;;;18.91;69.3
61628;BME280;55193;52.102;5.242;2022-09-04T00:34:52;101325.0;;;18.87;69.61
61628;BME280;55193;52.102;5.242;2022-09-04T00:36:35;101323.0;;;18.8;70.22
61628;BME280;55193;52.102;5.242;2022-09-04T00:38:16;101327.0;;;18.73;70.48
61628;BME280;55193;52.102;5.242;2022-09-04T00:40:00;101321.0;;;18.75;70.52
61628;BME280;55193;52.102;5.242;2022-09-04T00:45:03;101317.0;;;18.79;70.47
61628;BME280;55193;52.102;5.242;2022-09-04T00:47:01;101324.0;;;18.81;70.55
61628;BME280;55193;52.102;5.242;2022-09-04T00:50:09;101332.0;;;18.8;70.53
61628;BME280;55193;52.102;5.242;2022-09-04T00:52:06;101330.0;;;18.84;70.66
61628;BME280;55193;52.102;5.242;2022-09-04T00:53:58;101333.0;;;18.79;71.12
61628;BME280;55193;52.102;5.242;2022-09-04T00:56:33;101335.0;;;18.77;71.7
61628;BME280;55193;52.102;5.242;2022-09-04T01:00:03;101337.0;;;18.73;72.3
61628;BME280;55193;52.102;5.242;2022-09-04T01:01:43;101335.0;;;18.73;72.91
61628;BME280;55193;52.102;5.242;2022-09-04T01:03:33;101339.0;;;18.73;72.75
61628;BME280;55193;52.102;5.242;2022-09-04T01:05:35;101338.0;;;18.84;72.58
61628;BME280;55193;52.102;5.242;2022-09-04T01:07:32;101335.0;;;18.86;72.77
61628;BME280;55193;52.102;5.242;2022-09-04T01:09:36;101336.0;;;18.89;73.24
61628;BME280;55193;52.102;5.242;2022-09-04T01:11:48;101340.0;;;18.88;72.99
61628;BME280;55193;52.102;5.242;2022-09-04T01:13:37;101346.0;;;18.91;73.2
61628;BME280;55193;52.102;5.242;2022-09-04T01:17:06;101350.0;;;18.98;73.19
61628;BME280;55193;52.102;5.242;2022-09-04T01:18:51;101355.0;;;18.95;73.34
61628;BME280;55193;52.102;5.242;2022-09-04T01:20:44;101346.0;;;19.11;72.5
61628;BME280;55193;52.102;5.242;2022-09-04T01:22:53;101352.0;;;19.03;73.3
61628;BME280;55193;52.102;5.242;2022-09-04T01:24:50;101360.0;;;19.06;73.36
61628;BME280;55193;52.102;5.242;2022-09-04T01:26:42;101361.0;;;19.03;73.87
61628;BME280;55193;52.102;5.242;2022-09-04T01:28:27;101361.0;;;18.98;74.09
61628;BME280;55193;52.102;5.242;2022-09-04T01:30:08;101361.0;;;19.0;74.31
61628;BME280;55193;52.102;5.242;2022-09-04T01:33:48;101359.0;;;18.91;75.03
61628;BME280;55193;52.102;5.242;2022-09-04T01:35:33;101351.0;;;18.91;74.95
61628;BME280;55193;52.102;5.242;2022-09-04T01:37:26;101351.0;;;18.86;75.42
61628;BME280;55193;52.102;5.242;2022-09-04T01:39:17;101359.0;;;18.81;75.86
61628;BME280;55193;52.102;5.242;2022-09-04T01:41:02;101356.0;;;18.72;75.95
61628;BME280;55193;52.102;5.242;2022-09-04T01:42:45;101360.0;;;18.7;75.88
61628;BME280;55193;52.102;5.242;2022-09-04T01:46:17;101361.0;;;18.73;76.27
61628;BME280;55193;52.102;5.242;2022-09-04T01:48:11;101364.0;;;18.75;76.19
61628;BME280;55193;52.102;5.242;2022-09-04T01:49:56;101365.0;;;18.72;76.22
61628;BME280;55193;52.102;5.242;2022-09-04T01:51:42;101364.0;;;18.8;76.5
61628;BME280;55193;52.102;5.242;2022-09-04T01:53:24;101359.0;;;18.8;77.05
61628;BME280;55193;52.102;5.242;2022-09-04T01:57:01;101367.0;;;18.79;76.94
61628;BME280;55193;52.102;5.242;2022-09-04T01:58:47;101369.0;;;18.82;76.95
61628;BME280;55193;52.102;5.242;2022-09-04T02:00:30;101370.0;;;18.78;76.84
61628;BME280;55193;52.102;5.242;2022-09-04T02:02:13;101371.0;;;18.82;76.58
61628;BME280;55193;52.102;5.242;2022-09-04T02:04:01;101374.0;;;18.84;76.3
61628;BME280;55193;52.102;5.242;2022-09-04T02:05:56;101377.0;;;18.72;76.97
61628;BME280;55193;52.102;5.242;2022-09-04T02:09:29;101380.0;;;18.7;77.05
61628;BME280;55193;52.102;5.242;2022-09-04T02:11:14;101378.0;;;18.66;77.38
61628;BME280;55193;52.102;5.242;2022-09-04T02:12:59;101372.0;;;18.64;77.61
61628;BME280;55193;52.102;5.242;2022-09-04T02:14:50;101376.0;;;18.61;77.69
61628;BME280;55193;52.102;5.242;2022-09-04T02:16:40;101388.0;;;18.47;78.03
61628;BME280;55193;52.102;5.242;2022-09-04T02:18:31;101389.0;;;18.45;78.08
61628;BME280;55193;52.102;5.242;2022-09-04T02:22:08;101380.0;;;18.45;78.3
61628;BME280;55193;52.102;5.242;2022-09-04T02:23:59;101384.0;;;18.43;78.33
61628;BME280;55193;52.102;5.242;2022-09-04T02:25:44;101395.0;;;18.41;78.62
61628;BME280;55193;52.102;5.242;2022-09-04T02:27:31;101397.0;;;18.32;78.8
61628;BME280;55193;52.102;5.242;2022-09-04T02:29:22;101400.0;;;18.31;78.98
61628;BME280;55193;52.102;5.242;2022-09-04T02:31:13;101392.0;;;18.34;79.16
61628;BME280;55193;52.102;5.242;2022-09-04T02:32:59;101389.0;;;18.34;79.22
61628;BME280;55193;52.102;5.242;2022-09-04T02:36:29;101389.0;;;18.34;79.22
61628;BME280;55193;52.102;5.242;2022-09-04T02:38:18;101393.0;;;18.23;79.83
61628;BME280;55193;52.102;5.242;2022-09-04T02:40:07;101399.0;;;18.27;79.69
61628;BME280;55193;52.102;5.242;2022-09-04T02:41:58;101401.0;;;18.27;79.55
61628;BME280;55193;52.102;5.242;2022-09-04T02:43:51;101405.0;;;18.27;79.55
61628;BME280;55193;52.102;5.242;2022-09-04T02:45:41;101402.0;;;18.3;79.38
61628;BME280;55193;52.102;5.242;2022-09-04T02:49:10;101410.0;;;18.27;79.58
61628;BME280;55193;52.102;5.242;2022-09-04T02:51:06;101416.0;;;18.27;79.69
61628;BME280;55193;52.102;5.242;2022-09-04T02:53:09;101414.0;;;18.28;79.81
61628;BME280;55193;52.102;5.242;2022-09-04T02:55:16;101417.0;;;18.27;79.87
61628;BME280;55193;52.102;5.242;2022-09-04T02:57:04;101414.0;;;18.41;79.22
61628;BME280;55193;52.102;5.242;2022-09-04T02:58:59;101422.0;;;18.27;79.78
61628;BME280;55193;52.102;5.242;2022-09-04T03:00:46;101419.0;;;18.23;79.89
61628;BME280;55193;52.102;5.242;2022-09-04T03:02:36;101416.0;;;18.31;79.74
61628;BME280;55193;52.102;5.242;2022-09-04T03:04:21;101416.0;;;18.18;80.44
61628;BME280;55193;52.102;5.242;2022-09-04T03:07:50;101414.0;;;18.14;80.69
61628;BME280;55193;52.102;5.242;2022-09-04T03:09:37;101413.0;;;18.09;81.19
61628;BME280;55193;52.102;5.242;2022-09-04T03:11:25;101418.0;;;18.09;81.3
61628;BME280;55193;52.102;5.242;2022-09-04T03:13:09;101417.0;;;18.05;81.58
61628;BME280;55193;52.102;5.242;2022-09-04T03:14:59;101419.0;;;18.06;81.55
61628;BME280;55193;52.102;5.242;2022-09-04T03:18:26;101417.0;;;18.02;81.78
61628;BME280;55193;52.102;5.242;2022-09-04T03:20:08;101415.0;;;18.02;82.2
61628;BME280;55193;52.102;5.242;2022-09-04T03:21:54;101419.0;;;17.95;82.75
61628;BME280;55193;52.102;5.242;2022-09-04T03:23:38;101420.0;;;18.0;82.61
61628;BME280;55193;52.102;5.242;2022-09-04T03:25:31;101424.0;;;17.98;82.8
61628;BME280;55193;52.102;5.242;2022-09-04T03:28:02;101427.0;;;18.02;82.69
61628;BME280;55193;52.102;5.242;2022-09-04T03:29:46;101426.0;;;18.06;82.79
61628;BME280;55193;52.102;5.242;2022-09-04T03:31:28;101423.0;;;18.04;82.85
61628;BME280;55193;52.102;5.242;2022-09-04T03:35:02;101421.0;;;18.06;82.82
61628;BME280;55193;52.102;5.242;2022-09-04T03:36:49;101423.0;;;18.02;83.46
61628;BME280;55193;52.102;5.242;2022-09-04T03:38:42;101423.0;;;17.87;84.34
61628;BME280;55193;52.102;5.242;2022-09-04T03:40:34;101434.0;;;17.91;84.34
61628;BME280;55193;52.102;5.242;2022-09-04T03:42:23;101425.0;;;17.91;84.51
61628;BME280;55193;52.102;5.242;2022-09-04T03:44:16;101428.0;;;17.88;84.64
61628;BME280;55193;52.102;5.242;2022-09-04T03:48:08;101425.0;;;17.93;84.7
61628;BME280;55193;52.102;5.242;2022-09-04T03:49:53;101428.0;;;17.91;84.56
61628;BME280;55193;52.102;5.242;2022-09-04T03:51:46;101426.0;;;17.86;85.07
61628;BME280;55193;52.102;5.242;2022-09-04T03:53:30;101434.0;;;17.84;85.17
61628;BME280;55193;52.102;5.242;2022-09-04T03:55:33;101441.0;;;17.91;85.71
61628;BME280;55193;52.102;5.242;2022-09-04T03:58:56;101439.0;;;17.95;85.65
61628;BME280;55193;52.102;5.242;2022-09-04T04:02:36;101443.0;;;17.93;85.9
61628;BME280;55193;52.102;5.242;2022-09-04T04:08:13;101450.0;;;18.02;86.01
61628;BME280;55193;52.102;5.242;2022-09-04T04:11:48;101460.0;;;18.09;85.44
61628;BME280;55193;52.102;5.242;2022-09-04T04:13:40;101462.0;;;18.11;85.42
61628;BME280;55193;52.102;5.242;2022-09-04T04:15:41;101466.0;;;18.05;85.74
61628;BME280;55193;52.102;5.242;2022-09-04T04:19:27;101464.0;;;18.0;86.16
61628;BME280;55193;52.102;5.242;2022-09-04T04:21:21;101468.0;;;17.98;86.57
61628;BME280;55193;52.102;5.242;2022-09-04T04:23:16;101477.0;;;17.98;86.96
61628;BME280;55193;52.102;5.242;2022-09-04T04:25:19;101472.0;;;17.97;86.9
61628;BME280;55193;52.102;5.242;2022-09-04T04:27:10;101469.0;;;17.97;86.92
61628;BME280;55193;52.102;5.242;2022-09-04T04:29:10;101473.0;;;17.91;87.01
61628;BME280;55193;52.102;5.242;2022-09-04T04:31:07;101480.0;;;17.93;87.27
61628;BME280;55193;52.102;5.242;2022-09-04T04:33:00;101482.0;;;17.95;87.28
61628;BME280;55193;52.102;5.242;2022-09-04T04:35:24;101480.0;;;17.95;87.24
61628;BME280;55193;52.102;5.242;2022-09-04T04:37:08;101481.0;;;17.91;87.78
61628;BME280;55193;52.102;5.242;2022-09-04T04:38:57;101485.0;;;17.93;87.83
61628;BME280;55193;52.102;5.242;2022-09-04T04:41:01;101484.0;;;17.91;87.95
61628;BME280;55193;52.102;5.242;2022-09-04T04:42:59;101483.0;;;17.86;88.2
61628;BME280;55193;52.102;5.242;2022-09-04T04:48:27;101485.0;;;17.91;88.43
61628;BME280;55193;52.102;5.242;2022-09-04T04:51:43;101487.0;;;17.95;88.35
61628;BME280;55193;52.102;5.242;2022-09-04T04:53:45;101488.0;;;17.93;88.4
61628;BME280;55193;52.102;5.242;2022-09-04T04:55:34;101490.0;;;17.86;88.7
61628;BME280;55193;52.102;5.242;2022-09-04T04:57:23;101495.0;;;17.91;88.46
61628;BME280;55193;52.102;5.242;2022-09-04T05:01:02;101494.0;;;17.86;88.67
61628;BME280;55193;52.102;5.242;2022-09-04T05:02:52;101497.0;;;17.91;88.48
61628;BME280;55193;52.102;5.242;2022-09-04T05:04:41;101506.0;;;17.91;88.89
61628;BME280;55193;52.102;5.242;2022-09-04T05:06:24;101501.0;;;17.86;88.99
61628;BME280;55193;52.102;5.242;2022-09-04T05:08:14;101505.0;;;17.89;89.18
61628;BME280;55193;52.102;5.242;2022-09-04T05:10:01;101505.0;;;17.91;89.11
61628;BME280;55193;52.102;5.242;2022-09-04T05:13:36;101505.0;;;17.88;89.17
61628;BME280;55193;52.102;5.242;2022-09-04T05:15:27;101511.0;;;17.93;89.04
61628;BME280;55193;52.102;5.242;2022-09-04T05:17:16;101514.0;;;17.95;88.87
61628;BME280;55193;52.102;5.242;2022-09-04T05:19:00;101513.0;;;17.91;89.17
61628;BME280;55193;52.102;5.242;2022-09-04T05:20:46;101509.0;;;17.88;89.5
61628;BME280;55193;52.102;5.242;2022-09-04T05:22:34;101520.0;;;17.87;89.7
61628;BME280;55193;52.102;5.242;2022-09-04T05:26:05;101520.0;;;17.89;89.52
61628;BME280;55193;52.102;5.242;2022-09-04T05:27:55;101526.0;;;17.88;90.05
61628;BME280;55193;52.102;5.242;2022-09-04T05:29:44;101527.0;;;17.93;89.93
61628;BME280;55193;52.102;5.242;2022-09-04T05:31:31;101526.0;;;17.93;90.21
61628;BME280;55193;52.102;5.242;2022-09-04T05:33:19;101536.0;;;17.93;90.01
61628;BME280;55193;52.102;5.242;2022-09-04T05:35:08;101545.0;;;17.95;90.07
61628;BME280;55193;52.102;5.242;2022-09-04T05:38:46;101549.0;;;18.0;89.9
61628;BME280;55193;52.102;5.242;2022-09-04T05:40:51;101546.0;;;18.04;89.76
61628;BME280;55193;52.102;5.242;2022-09-04T05:42:41;101544.0;;;18.06;89.94
61628;BME280;55193;52.102;5.242;2022-09-04T05:44:37;101545.0;;;18.11;89.7
61628;BME280;55193;52.102;5.242;2022-09-04T05:46:31;101545.0;;;18.06;90.09
61628;BME280;55193;52.102;5.242;2022-09-04T05:48:23;101549.0;;;18.07;89.93
61628;BME280;55193;52.102;5.242;2022-09-04T05:50:15;101549.0;;;18.09;89.9
61628;BME280;55193;52.102;5.242;2022-09-04T05:53:23;101552.0;;;18.14;89.86
61628;BME280;55193;52.102;5.242;2022-09-04T05:56:09;101552.0;;;18.12;90.32
61628;BME280;55193;52.102;5.242;2022-09-04T05:59:04;101555.0;;;18.22;89.9
61628;BME280;55193;52.102;5.242;2022-09-04T06:00:55;101558.0;;;18.25;89.98
61628;BME280;55193;52.102;5.242;2022-09-04T06:06:35;101570.0;;;18.5;88.81
61628;BME280;55193;52.102;5.242;2022-09-04T06:10:10;101573.0;;;18.47;88.95
61628;BME280;55193;52.102;5.242;2022-09-04T06:12:12;101574.0;;;18.62;88.14
61628;BME280;55193;52.102;5.242;2022-09-04T06:15:40;101577.0;;;18.75;87.71
61628;BME280;55193;52.102;5.242;2022-09-04T06:17:36;101582.0;;;18.82;87.08
61628;BME280;55193;52.102;5.242;2022-09-04T06:19:32;101576.0;;;18.79;87.61
61628;BME280;55193;52.102;5.242;2022-09-04T06:22:23;101581.0;;;18.8;87.68
61628;BME280;55193;52.102;5.242;2022-09-04T06:25:12;101584.0;;;18.84;87.48
61628;BME280;55193;52.102;5.242;2022-09-04T06:28:47;101584.0;;;18.95;87.3
61628;BME280;55193;52.102;5.242;2022-09-04T06:31:45;101582.0;;;19.09;86.57
61628;BME280;55193;52.102;5.242;2022-09-04T06:34:14;101589.0;;;19.09;87.08
61628;BME280;55193;52.102;5.242;2022-09-04T06:37:04;101589.0;;;19.28;85.31
61628;BME280;55193;52.102;5.242;2022-09-04T06:38:54;101595.0;;;19.27;85.38
61628;BME280;55193;52.102;5.242;2022-09-04T06:40:51;101591.0;;;19.3;85.35
61628;BME280;55193;52.102;5.242;2022-09-04T06:42:46;101594.0;;;19.36;85.16
61628;BME280;55193;52.102;5.242;2022-09-04T06:44:34;101596.0;;;19.45;85.01
61628;BME280;55193;52.102;5.242;2022-09-04T06:46:22;101599.0;;;19.53;85.26
61628;BME280;55193;52.102;5.242;2022-09-04T06:48:12;101596.0;;;19.62;84.37
61628;BME280;55193;52.102;5.242;2022-09-04T06:52:04;101595.0;;;19.66;84.5
61628;BME280;55193;52.102;5.242;2022-09-04T06:53:52;101598.0;;;19.79;84.59
61628;BME280;55193;52.102;5.242;2022-09-04T06:55:40;101603.0;;;19.88;84.45
61628;BME280;55193;52.102;5.242;2022-09-04T06:57:37;101605.0;;;20.09;82.15
61628;BME280;55193;52.102;5.242;2022-09-04T06:59:39;101605.0;;;20.18;82.68
61628;BME280;55193;52.102;5.242;2022-09-04T07:01:47;101609.0;;;20.21;83.04
61628;BME280;55193;52.102;5.242;2022-09-04T07:03:40;101608.0;;;20.34;81.69
61628;BME280;55193;52.102;5.242;2022-09-04T07:05:28;101602.0;;;20.39;80.11
61628;BME280;55193;52.102;5.242;2022-09-04T07:07:13;101605.0;;;20.41;82.44
61628;BME280;55193;52.102;5.242;2022-09-04T07:10:51;101609.0;;;20.56;81.02
61628;BME280;55193;52.102;5.242;2022-09-04T07:12:51;101608.0;;;20.62;81.61
61628;BME280;55193;52.102;5.242;2022-09-04T07:15:28;101608.0;;;20.76;81.24
61628;BME280;55193;52.102;5.242;2022-09-04T07:16:19;101603.0;;;20.91;80.22
61628;BME280;55193;52.102;5.242;2022-09-04T07:18:21;101605.0;;;21.01;80.28
61628;BME280;55193;52.102;5.242;2022-09-04T07:20:12;101609.0;;;21.14;78.08
61628;BME280;55193;52.102;5.242;2022-09-04T07:22:03;101611.0;;;21.23;78.49
61628;BME280;55193;52.102;5.242;2022-09-04T07:23:53;101618.0;;;21.44;78.72
61628;BME280;55193;52.102;5.242;2022-09-04T07:27:31;101614.0;;;21.47;77.8
61628;BME280;55193;52.102;5.242;2022-09-04T07:29:23;101615.0;;;21.54;78.19
61628;BME280;55193;52.102;5.242;2022-09-04T07:31:12;101611.0;;;21.61;78.38
61628;BME280;55193;52.102;5.242;2022-09-04T07:32:57;101613.0;;;21.73;76.11
61628;BME280;55193;52.102;5.242;2022-09-04T07:34:42;101613.0;;;21.77;77.16
61628;BME280;55193;52.102;5.242;2022-09-04T07:36:30;101616.0;;;21.89;75.47
61628;BME280;55193;52.102;5.242;2022-09-04T07:40:07;101616.0;;;22.02;75.22
61628;BME280;55193;52.102;5.242;2022-09-04T07:41:51;101613.0;;;22.14;75.55
61628;BME280;55193;52.102;5.242;2022-09-04T07:43:36;101619.0;;;22.22;75.53
61628;BME280;55193;52.102;5.242;2022-09-04T07:45:27;101620.0;;;22.25;75.83
61628;BME280;55193;52.102;5.242;2022-09-04T07:47:16;101621.0;;;22.29;75.66
61628;BME280;55193;52.102;5.242;2022-09-04T07:49:00;101624.0;;;22.42;75.02
61628;BME280;55193;52.102;5.242;2022-09-04T07:52:48;101630.0;;;22.65;73.11
61628;BME280;55193;52.102;5.242;2022-09-04T07:55:24;101642.0;;;22.79;73.84
61628;BME280;55193;52.102;5.242;2022-09-04T07:57:24;101642.0;;;22.84;73.75
61628;BME280;55193;52.102;5.242;2022-09-04T07:59:30;101647.0;;;22.95;73.88
61628;BME280;55193;52.102;5.242;2022-09-04T08:01:47;101643.0;;;22.97;73.55
61628;BME280;55193;52.102;5.242;2022-09-04T08:03:46;101643.0;;;23.18;72.48
61628;BME280;55193;52.102;5.242;2022-09-04T08:05:31;101647.0;;;23.28;71.75
61628;BME280;55193;52.102;5.242;2022-09-04T08:09:09;101643.0;;;23.27;71.97
61628;BME280;55193;52.102;5.242;2022-09-04T08:13:11;101644.0;;;23.22;70.61
61628;BME280;55193;52.102;5.242;2022-09-04T08:15:07;101651.0;;;23.28;72.11
61628;BME280;55193;52.102;5.242;2022-09-04T08:16:56;101649.0;;;23.26;72.61
61628;BME280;55193;52.102;5.242;2022-09-04T08:18:54;101657.0;;;23.44;71.86
61628;BME280;55193;52.102;5.242;2022-09-04T08:20:55;101655.0;;;23.75;71.3
61628;BME280;55193;52.102;5.242;2022-09-04T08:22:46;101657.0;;;23.75;71.05
61628;BME280;55193;52.102;5.242;2022-09-04T08:24:54;101659.0;;;23.88;70.06
61628;BME280;55193;52.102;5.242;2022-09-04T08:27:01;101663.0;;;23.89;70.3
61628;BME280;55193;52.102;5.242;2022-09-04T08:28:55;101660.0;;;24.03;70.39
61628;BME280;55193;52.102;5.242;2022-09-04T08:30:41;101663.0;;;24.19;69.31
61628;BME280;55193;52.102;5.242;2022-09-04T08:35:09;101667.0;;;24.28;68.91
61628;BME280;55193;52.102;5.242;2022-09-04T08:37:32;101671.0;;;24.45;68.8
61628;BME280;55193;52.102;5.242;2022-09-04T08:39:22;101671.0;;;24.5;67.8
61628;BME280;55193;52.102;5.242;2022-09-04T08:41:25;101670.0;;;24.56;68.08
61628;BME280;55193;52.102;5.242;2022-09-04T08:45:28;101670.0;;;24.77;67.02
61628;BME280;55193;52.102;5.242;2022-09-04T08:48:41;101675.0;;;24.87;67.85
61628;BME280;55193;52.102;5.242;2022-09-04T08:53:03;101674.0;;;25.05;67.0
61628;BME280;55193;52.102;5.242;2022-09-04T08:55:35;101680.0;;;25.1;67.91
61628;BME280;55193;52.102;5.242;2022-09-04T08:58:17;101680.0;;;25.17;66.05
61628;BME280;55193;52.102;5.242;2022-09-04T09:01:50;101680.0;;;25.18;67.03
61628;BME280;55193;52.102;5.242;2022-09-04T09:04:35;101685.0;;;25.49;66.44
61628;BME280;55193;52.102;5.242;2022-09-04T09:06:47;101682.0;;;25.53;66.17
61628;BME280;55193;52.102;5.242;2022-09-04T09:10:11;101689.0;;;25.64;66.02
61628;BME280;55193;52.102;5.242;2022-09-04T09:13:44;101689.0;;;25.85;64.06
61628;BME280;55193;52.102;5.242;2022-09-04T09:16:41;101693.0;;;25.86;64.27
61628;BME280;55193;52.102;5.242;2022-09-04T09:18:33;101686.0;;;25.8;64.66
61628;BME280;55193;52.102;5.242;2022-09-04T09:20:25;101689.0;;;25.82;65.09
61628;BME280;55193;52.102;5.242;2022-09-04T09:22:08;101686.0;;;25.81;64.94
61628;BME280;55193;52.102;5.242;2022-09-04T09:25:07;101688.0;;;25.77;64.77
61628;BME280;55193;52.102;5.242;2022-09-04T09:27:28;101692.0;;;25.9;64.91
61628;BME280;55193;52.102;5.242;2022-09-04T09:29:26;101691.0;;;26.01;64.75
61628;BME280;55193;52.102;5.242;2022-09-04T09:31:41;101687.0;;;26.0;64.41
61628;BME280;55193;52.102;5.242;2022-09-04T09:35:12;101684.0;;;26.01;63.67
61628;BME280;55193;52.102;5.242;2022-09-04T09:38:47;101692.0;;;26.12;62.37
61628;BME280;55193;52.102;5.242;2022-09-04T09:42:20;101692.0;;;26.3;62.2
61628;BME280;55193;52.102;5.242;2022-09-04T09:46:07;101694.0;;;26.42;61.95
61628;BME280;55193;52.102;5.242;2022-09-04T09:48:32;101690.0;;;26.49;60.94
61628;BME280;55193;52.102;5.242;2022-09-04T09:52:23;101690.0;;;26.56;61.29
61628;BME280;55193;52.102;5.242;2022-09-04T09:55:01;101685.0;;;26.8;60.34
61628;BME280;55193;52.102;5.242;2022-09-04T10:01:17;101692.0;;;26.91;59.99
61628;BME280;55193;52.102;5.242;2022-09-04T10:04:14;101693.0;;;26.91;59.8
61628;BME280;55193;52.102;5.242;2022-09-04T10:06:50;101696.0;;;26.96;59.35
61628;BME280;55193;52.102;5.242;2022-09-04T10:09:47;101701.0;;;27.12;59.11
61628;BME280;55193;52.102;5.242;2022-09-04T10:13:14;101687.0;;;27.21;58.09
61628;BME280;55193;52.102;5.242;2022-09-04T10:20:11;101686.0;;;27.42;57.64
61628;BME280;55193;52.102;5.242;2022-09-04T10:22:32;101693.0;;;27.6;57.36
61628;BME280;55193;52.102;5.242;2022-09-04T10:29:02;101700.0;;;27.58;57.98
61628;BME280;55193;52.102;5.242;2022-09-04T10:31:41;101698.0;;;27.68;57.67
61628;BME280;55193;52.102;5.242;2022-09-04T10:34:34;101700.0;;;27.63;56.86
61628;BME280;55193;52.102;5.242;2022-09-04T10:36:27;101702.0;;;27.59;56.03
61628;BME280;55193;52.102;5.242;2022-09-04T10:38:56;101701.0;;;27.68;55.36
61628;BME280;55193;52.102;5.242;2022-09-04T10:40:46;101701.0;;;27.67;55.6
61628;BME280;55193;52.102;5.242;2022-09-04T10:42:38;101703.0;;;27.76;55.38
61628;BME280;55193;52.102;5.242;2022-09-04T10:46:49;101700.0;;;27.69;54.75
61628;BME280;55193;52.102;5.242;2022-09-04T10:50:55;101709.0;;;27.68;55.15
61628;BME280;55193;52.102;5.242;2022-09-04T10:53:19;101708.0;;;27.66;54.39
61628;BME280;55193;52.102;5.242;2022-09-04T10:55:31;101705.0;;;27.62;55.25
61628;BME280;55193;52.102;5.242;2022-09-04T10:58:11;101705.0;;;27.75;55.85
61628;BME280;55193;52.102;5.242;2022-09-04T11:00:05;101707.0;;;27.95;54.5
61628;BME280;55193;52.102;5.242;2022-09-04T11:02:31;101708.0;;;28.01;55.02
61628;BME280;55193;52.102;5.242;2022-09-04T11:06:09;101707.0;;;28.04;53.92
61628;BME280;55193;52.102;5.242;2022-09-04T11:11:41;101706.0;;;28.09;53.59
61628;BME280;55193;52.102;5.242;2022-09-04T11:14:01;101705.0;;;28.15;53.58
61628;BME280;55193;52.102;5.242;2022-09-04T11:16:52;101705.0;;;28.26;53.62
61628;BME280;55193;52.102;5.242;2022-09-04T11:20:23;101705.0;;;28.22;53.24
61628;BME280;55193;52.102;5.242;2022-09-04T11:22:37;101705.0;;;28.31;53.33
61628;BME280;55193;52.102;5.242;2022-09-04T11:27:47;101699.0;;;28.41;53.25
61628;BME280;55193;52.102;5.242;2022-09-04T11:30:30;101697.0;;;28.61;52.68
61628;BME280;55193;52.102;5.242;2022-09-04T11:32:44;101702.0;;;28.44;52.83
61628;BME280;55193;52.102;5.242;2022-09-04T11:36:07;101694.0;;;28.45;52.09
61628;BME280;55193;52.102;5.242;2022-09-04T11:39:46;101700.0;;;28.43;51.51
61628;BME280;55193;52.102;5.242;2022-09-04T11:43:35;101705.0;;;28.66;51.1
61628;BME280;55193;52.102;5.242;2022-09-04T11:47:24;101697.0;;;28.62;51.07
61628;BME280;55193;52.102;5.242;2022-09-04T11:48:30;101695.0;;;28.58;50.96
61628;BME280;55193;52.102;5.242;2022-09-04T11:49:35;101695.0;;;28.58;50.96
61628;BME280;55193;52.102;5.242;2022-09-04T11:50:35;101694.0;;;28.64;50.85
61628;BME280;55193;52.102;5.242;2022-09-04T11:52:25;101693.0;;;28.76;51.06
61628;BME280;55193;52.102;5.242;2022-09-04T11:55:16;101698.0;;;28.89;50.6
61628;BME280;55193;52.102;5.242;2022-09-04T11:57:03;101697.0;;;28.8;50.78
61628;BME280;55193;52.102;5.242;2022-09-04T11:59:03;101699.0;;;28.83;50.73
61628;BME280;55193;52.102;5.242;2022-09-04T12:01:06;101705.0;;;28.85;49.86
61628;BME280;55193;52.102;5.242;2022-09-04T12:03:04;101694.0;;;28.8;49.85
61628;BME280;55193;52.102;5.242;2022-09-04T12:06:45;101699.0;;;28.53;50.72
61628;BME280;55193;52.102;5.242;2022-09-04T12:09:17;101705.0;;;28.57;51.17
61628;BME280;55193;52.102;5.242;2022-09-04T12:11:18;101703.0;;;28.55;50.76
61628;BME280;55193;52.102;5.242;2022-09-04T12:13:20;101697.0;;;28.57;50.69
61628;BME280;55193;52.102;5.242;2022-09-04T12:16:16;101705.0;;;28.5;50.85
61628;BME280;55193;52.102;5.242;2022-09-04T12:19:20;101705.0;;;28.68;50.39
61628;BME280;55193;52.102;5.242;2022-09-04T12:22:14;101707.0;;;28.66;50.24
61628;BME280;55193;52.102;5.242;2022-09-04T12:25:38;101709.0;;;28.54;50.63
61628;BME280;55193;52.102;5.242;2022-09-04T12:29:05;101710.0;;;28.51;50.15
61628;BME280;55193;52.102;5.242;2022-09-04T12:30:18;101706.0;;;28.39;50.36
61628;BME280;55193;52.102;5.242;2022-09-04T12:32:27;101706.0;;;28.38;50.52
61628;BME280;55193;52.102;5.242;2022-09-04T12:35:32;101708.0;;;28.5;50.65
61628;BME280;55193;52.102;5.242;2022-09-04T12:42:47;101708.0;;;28.78;50.17
61628;BME280;55193;52.102;5.242;2022-09-04T12:44:38;101714.0;;;28.84;50.55
61628;BME280;55193;52.102;5.242;2022-09-04T12:46:31;101714.0;;;28.92;49.47
61628;BME280;55193;52.102;5.242;2022-09-04T12:48:23;101715.0;;;28.98;49.97
61628;BME280;55193;52.102;5.242;2022-09-04T12:54:02;101717.0;;;29.06;49.68
61628;BME280;55193;52.102;5.242;2022-09-04T12:55:53;101719.0;;;29.09;48.59